createdAt,value
2022-07-25T00:00:25.140Z,15.07
2022-07-25T00:02:51.831Z,13.73
2022-07-25T00:05:18.475Z,12.60
2022-07-25T00:07:45.284Z,12.77
2022-07-25T00:10:12.101Z,12.25
2022-07-25T00:12:39.009Z,11.10
2022-07-25T00:15:06.413Z,9.65
2022-07-25T00:17:33.061Z,9.20
2022-07-25T00:19:59.711Z,10.75
2022-07-25T00:22:26.429Z,10.50
2022-07-25T00:24:53.256Z,9.75
2022-07-25T00:27:19.915Z,105.63
2022-07-25T00:29:47.191Z,50.72
2022-07-25T00:32:13.891Z,30.02
2022-07-25T00:34:40.569Z,17.15
2022-07-25T00:37:07.217Z,38.63
2022-07-25T00:39:35.713Z,22.40
2022-07-25T00:42:03.426Z,21.02
2022-07-25T00:44:32.585Z,19.73
2022-07-25T00:46:59.921Z,26.27
2022-07-25T00:49:27.234Z,176.88
2022-07-25T00:51:54.337Z,201.30
2022-07-25T00:54:21.771Z,161.20
2022-07-25T00:56:49.400Z,78.13
2022-07-25T00:59:17.124Z,56.92
2022-07-25T01:01:45.636Z,23.35
2022-07-25T01:04:12.446Z,45.23
2022-07-25T01:06:39.274Z,15.15
2022-07-25T01:09:06.787Z,21.27
2022-07-25T01:11:34.000Z,14.32
2022-07-25T01:14:00.667Z,20.00
2022-07-25T01:16:27.379Z,16.00
2022-07-25T01:18:54.043Z,21.85
2022-07-25T01:21:20.730Z,13.88
2022-07-25T01:23:47.468Z,10.95
2022-07-25T01:26:14.091Z,9.98
2022-07-25T01:28:40.786Z,12.32
2022-07-25T01:31:07.645Z,13.30
2022-07-25T01:33:34.366Z,14.60
2022-07-25T01:36:01.062Z,10.43
2022-07-25T01:38:27.873Z,10.90
2022-07-25T01:40:54.503Z,10.85
2022-07-25T01:43:21.178Z,12.80
2022-07-25T01:45:47.867Z,9.20
2022-07-25T01:48:14.601Z,13.00
2022-07-25T01:50:41.243Z,13.13
2022-07-25T01:53:07.877Z,9.35
2022-07-25T01:55:34.629Z,9.20
2022-07-25T01:58:01.336Z,36.20
2022-07-25T02:00:28.008Z,120.13
2022-07-25T02:03:14.547Z,29.20
2022-07-25T02:05:41.712Z,13.82
2022-07-25T02:08:08.329Z,13.82
2022-07-25T02:13:04.574Z,143.40
2022-07-25T02:15:31.236Z,38.60
2022-07-25T02:17:57.882Z,20.02
2022-07-25T02:20:24.601Z,13.38
2022-07-25T02:22:51.261Z,8.43
2022-07-25T02:25:18.213Z,9.70
2022-07-25T02:27:44.864Z,8.27
2022-07-25T02:30:11.898Z,9.15
2022-07-25T02:32:38.747Z,5.00
2022-07-25T02:35:13.333Z,6.72
2022-07-25T02:37:40.670Z,7.10
2022-07-25T02:40:07.934Z,9.23
2022-07-25T02:42:34.779Z,6.28
2022-07-25T02:45:01.911Z,7.88
2022-07-25T02:47:28.682Z,6.65
2022-07-25T02:49:55.397Z,9.55
2022-07-25T02:52:22.013Z,8.25
2022-07-25T02:54:48.629Z,9.68
2022-07-25T02:57:15.309Z,7.50
2022-07-25T02:59:41.903Z,6.95
2022-07-25T03:02:08.728Z,8.30
2022-07-25T03:04:35.421Z,10.60
2022-07-25T03:07:02.424Z,6.85
2022-07-25T03:09:30.156Z,7.44
2022-07-25T03:11:56.817Z,7.38
2022-07-25T03:14:23.466Z,5.65
2022-07-25T03:16:50.251Z,8.50
2022-07-25T03:19:17.481Z,9.43
2022-07-25T03:21:45.299Z,10.60
2022-07-25T03:24:11.988Z,6.15
2022-07-25T03:26:38.608Z,5.80
2022-07-25T03:29:05.238Z,7.30
2022-07-25T03:31:31.959Z,7.35
2022-07-25T03:33:58.710Z,8.02
2022-07-25T03:36:25.325Z,7.10
2022-07-25T03:38:52.022Z,9.85
2022-07-25T03:41:18.714Z,9.60
2022-07-25T03:43:45.424Z,11.25
2022-07-25T03:46:12.209Z,10.02
2022-07-25T03:48:38.979Z,9.70
2022-07-25T03:51:07.286Z,8.88
2022-07-25T03:53:54.549Z,8.07
2022-07-25T03:56:21.264Z,9.70
2022-07-25T03:58:48.158Z,10.98
2022-07-25T04:01:14.977Z,10.68
2022-07-25T04:03:41.662Z,8.18
2022-07-25T04:06:11.300Z,10.00
2022-07-25T04:08:38.004Z,10.95
2022-07-25T04:11:04.783Z,10.85
2022-07-25T04:13:31.817Z,10.65
2022-07-25T04:15:58.508Z,11.77
2022-07-25T04:18:28.553Z,16.17
2022-07-25T04:20:55.516Z,11.18
2022-07-25T04:23:22.155Z,8.80
2022-07-25T04:25:48.801Z,10.48
2022-07-25T04:28:15.543Z,9.73
2022-07-25T04:30:45.397Z,15.48
2022-07-25T04:33:12.956Z,7.00
2022-07-25T04:35:39.996Z,9.63
2022-07-25T04:38:11.929Z,8.43
2022-07-25T04:40:39.560Z,10.20
2022-07-25T04:43:06.260Z,11.55
2022-07-25T04:45:34.837Z,13.57
2022-07-25T04:48:02.030Z,10.60
2022-07-25T04:50:29.778Z,19.88
2022-07-25T04:52:56.761Z,13.23
2022-07-25T04:55:23.849Z,10.25
2022-07-25T04:57:50.573Z,9.07
2022-07-25T05:00:20.234Z,11.07
2022-07-25T05:02:46.824Z,13.50
2022-07-25T05:05:21.089Z,10.95
2022-07-25T05:07:49.336Z,8.60
2022-07-25T05:10:16.052Z,12.65
2022-07-25T05:12:42.769Z,9.65
2022-07-25T05:15:10.061Z,8.60
2022-07-25T05:17:36.770Z,15.65
2022-07-25T05:20:04.164Z,11.07
2022-07-25T05:22:31.204Z,8.63
2022-07-25T05:24:58.331Z,12.80
2022-07-25T05:27:29.881Z,14.35
2022-07-25T05:29:56.652Z,10.98
2022-07-25T05:32:23.255Z,12.27
2022-07-25T05:34:50.224Z,8.65
2022-07-25T05:37:17.023Z,9.90
2022-07-25T05:39:44.580Z,12.07
2022-07-25T05:42:11.218Z,11.40
2022-07-25T05:44:37.937Z,14.70
2022-07-25T05:47:04.933Z,12.73
2022-07-25T05:49:31.631Z,11.85
2022-07-25T05:51:58.399Z,16.80
2022-07-25T05:54:25.027Z,8.85
2022-07-25T05:56:54.231Z,11.10
2022-07-25T05:59:20.837Z,11.18
2022-07-25T06:01:47.768Z,8.73
2022-07-25T06:04:14.567Z,14.75
2022-07-25T06:06:41.219Z,11.27
2022-07-25T06:09:08.588Z,8.85
2022-07-25T06:11:35.966Z,9.85
2022-07-25T06:14:18.869Z,8.13
2022-07-25T06:16:45.956Z,13.18
2022-07-25T06:19:12.664Z,7.50
2022-07-25T06:21:39.282Z,9.18
2022-07-25T06:24:06.421Z,14.95
2022-07-25T06:26:33.285Z,11.85
2022-07-25T06:29:00.016Z,10.15
2022-07-25T06:31:26.707Z,9.13
2022-07-25T06:33:53.407Z,9.63
2022-07-25T06:36:20.037Z,9.10
2022-07-25T06:38:46.708Z,7.72
2022-07-25T06:41:16.587Z,9.43
2022-07-25T06:43:43.330Z,11.63
2022-07-25T06:46:10.008Z,22.38
2022-07-25T06:48:36.872Z,12.93
2022-07-25T06:51:04.252Z,13.27
2022-07-25T06:53:31.370Z,13.23
2022-07-25T06:55:58.051Z,8.15
2022-07-25T06:58:24.719Z,10.10
2022-07-25T07:00:52.751Z,13.18
2022-07-25T07:03:19.500Z,13.13
2022-07-25T07:05:46.244Z,10.95
2022-07-25T07:08:13.099Z,11.57
2022-07-25T07:10:40.290Z,7.93
2022-07-25T07:13:09.459Z,9.88
2022-07-25T07:15:40.094Z,11.00
2022-07-25T07:18:07.120Z,12.75
2022-07-25T07:20:33.853Z,7.97
2022-07-25T07:23:00.501Z,11.27
2022-07-25T07:25:28.581Z,13.45
2022-07-25T07:27:55.445Z,11.93
2022-07-25T07:30:25.958Z,12.65
2022-07-25T07:33:00.494Z,9.98
2022-07-25T07:35:27.499Z,13.55
2022-07-25T07:37:54.861Z,12.73
2022-07-25T07:40:22.807Z,11.25
2022-07-25T07:42:50.865Z,9.30
2022-07-25T07:45:23.375Z,8.02
2022-07-25T07:47:51.829Z,10.25
2022-07-25T07:50:21.933Z,11.68
2022-07-25T07:52:49.630Z,8.50
2022-07-25T07:55:34.733Z,15.45
2022-07-25T07:58:01.858Z,9.65
2022-07-25T08:00:35.832Z,12.95
2022-07-25T08:03:03.490Z,11.38
2022-07-25T08:05:32.783Z,10.98
2022-07-25T08:08:01.174Z,10.68
2022-07-25T08:10:30.540Z,12.25
2022-07-25T08:12:58.548Z,10.93
2022-07-25T08:15:26.431Z,11.75
2022-07-25T08:17:53.100Z,10.98
2022-07-25T08:20:37.440Z,9.80
2022-07-25T08:23:05.522Z,7.22
2022-07-25T08:25:32.509Z,12.80
2022-07-25T08:27:59.820Z,15.55
2022-07-25T08:30:26.990Z,14.38
2022-07-25T08:33:00.274Z,9.93
2022-07-25T08:35:28.259Z,9.30
2022-07-25T08:37:55.966Z,9.35
2022-07-25T08:40:25.069Z,9.95
2022-07-25T08:45:22.525Z,8.35
2022-07-25T08:47:52.100Z,9.18
2022-07-25T08:50:21.193Z,16.15
2022-07-25T08:52:50.012Z,15.48
2022-07-25T08:55:22.569Z,12.68
2022-07-25T08:57:53.561Z,63.05
2022-07-25T09:00:22.731Z,6.95
2022-07-25T09:03:02.929Z,23.17
2022-07-25T09:05:32.055Z,148.75
2022-07-25T09:08:18.269Z,17.38
2022-07-25T09:10:54.260Z,123.40
2022-07-25T09:13:23.559Z,49.97
2022-07-25T09:15:56.914Z,7.47
2022-07-25T09:18:26.383Z,22.02
2022-07-25T09:21:01.914Z,12.55
2022-07-25T09:23:31.604Z,23.35
2022-07-25T09:26:09.730Z,6.28
2022-07-25T09:31:07.565Z,123.93
2022-07-25T09:33:34.348Z,9.75
2022-07-25T09:36:11.920Z,40.75
2022-07-25T09:38:38.616Z,5.43
2022-07-25T09:41:05.467Z,14.95
2022-07-25T09:43:40.436Z,8.73
2022-07-25T09:46:09.434Z,15.48
2022-07-25T09:48:37.952Z,4.80
2022-07-25T09:51:05.459Z,8.73
2022-07-25T09:53:32.416Z,7.15
2022-07-25T09:55:59.767Z,12.68
2022-07-25T09:58:28.077Z,4.63
2022-07-25T10:01:00.792Z,9.07
2022-07-25T10:03:46.334Z,248.07
2022-07-25T10:06:38.183Z,20.92
2022-07-25T10:09:14.043Z,52.58
2022-07-25T10:11:59.734Z,104.22
2022-07-25T10:14:30.447Z,70.53
2022-07-25T10:17:01.097Z,220.82
2022-07-25T10:19:52.829Z,435.17
2022-07-25T10:22:39.715Z,12.80
2022-07-25T10:25:18.610Z,107.55
2022-07-25T10:27:52.987Z,273.40
2022-07-25T10:30:23.157Z,89.68
2022-07-25T10:33:01.267Z,368.40
2022-07-25T10:37:56.512Z,15.05
2022-07-25T10:43:01.942Z,38.03
2022-07-25T10:45:42.961Z,69.43
2022-07-25T10:48:12.886Z,103.93
2022-07-25T10:51:11.391Z,24.05
2022-07-25T10:53:49.172Z,18.33
2022-07-25T10:56:21.030Z,41.88
2022-07-25T10:58:53.529Z,85.18
2022-07-25T11:01:27.563Z,41.58
2022-07-25T11:03:56.545Z,10.23
2022-07-25T11:06:38.711Z,11.25
2022-07-25T11:09:27.997Z,240.13
2022-07-25T11:11:59.389Z,14.90
2022-07-25T11:14:33.777Z,12.20
2022-07-25T11:17:26.981Z,68.10
2022-07-25T11:20:00.247Z,201.80
2022-07-25T11:22:28.270Z,12.57
2022-07-25T11:24:57.156Z,106.15
2022-07-25T11:27:25.511Z,196.25
2022-07-25T11:29:52.469Z,52.90
2022-07-25T11:32:20.080Z,440.05
2022-07-25T11:34:53.498Z,288.60
2022-07-25T11:37:21.331Z,9.88
2022-07-25T11:39:48.697Z,301.67
2022-07-25T11:42:22.067Z,8.83
2022-07-25T11:44:51.209Z,151.38
2022-07-25T11:47:32.518Z,91.20
2022-07-25T11:50:07.160Z,28.70
2022-07-25T11:52:36.414Z,81.45
2022-07-25T11:55:06.178Z,44.13
2022-07-25T11:57:35.851Z,81.25
2022-07-25T12:00:06.577Z,21.27
2022-07-25T12:02:39.026Z,182.35
2022-07-25T12:05:08.809Z,59.35
2022-07-25T12:07:46.926Z,50.65
2022-07-25T12:10:18.421Z,25.27
2022-07-25T12:12:50.933Z,14.07
2022-07-25T12:15:26.134Z,71.45
2022-07-25T12:17:55.175Z,132.68
2022-07-25T12:20:27.464Z,34.85
2022-07-25T12:22:57.561Z,190.30
2022-07-25T12:25:28.868Z,68.30
2022-07-25T12:27:58.858Z,18.65
2022-07-25T12:30:27.624Z,44.67
2022-07-25T12:32:55.037Z,13.00
2022-07-25T12:35:21.886Z,46.63
2022-07-25T12:37:49.075Z,17.83
2022-07-25T12:40:16.651Z,6.18
2022-07-25T12:42:44.712Z,68.33
2022-07-25T12:45:12.905Z,25.50
2022-07-25T12:47:39.737Z,102.93
2022-07-25T12:50:08.365Z,99.97
2022-07-25T12:52:35.361Z,194.68
2022-07-25T12:55:02.083Z,87.05
2022-07-25T12:57:28.974Z,173.80
2022-07-25T12:59:55.685Z,139.68
2022-07-25T13:02:22.526Z,312.13
2022-07-25T13:04:49.241Z,485.92
2022-07-25T13:07:16.385Z,393.45
2022-07-25T13:09:43.260Z,637.08
2022-07-25T13:12:12.329Z,575.42
2022-07-25T13:14:45.026Z,269.15
2022-07-25T13:17:11.907Z,404.33
2022-07-25T13:19:38.700Z,384.75
2022-07-25T13:22:05.939Z,128.43
2022-07-25T13:24:34.569Z,287.35
2022-07-25T13:29:35.437Z,202.30
2022-07-25T13:32:03.014Z,274.42
2022-07-25T13:34:31.291Z,180.65
2022-07-25T13:36:58.439Z,214.40
2022-07-25T13:39:25.304Z,141.82
2022-07-25T13:41:52.004Z,44.45
2022-07-25T13:44:18.929Z,38.97
2022-07-25T13:46:49.891Z,131.50
2022-07-25T13:49:18.041Z,111.57
2022-07-25T13:51:45.583Z,45.25
2022-07-25T13:54:13.117Z,67.55
2022-07-25T13:56:41.510Z,112.97
2022-07-25T13:59:08.658Z,50.65
2022-07-25T14:01:35.881Z,56.28
2022-07-25T14:04:02.834Z,90.10
2022-07-25T14:06:29.630Z,47.97
2022-07-25T14:08:56.451Z,39.17
2022-07-25T14:11:26.028Z,63.50
2022-07-25T14:13:57.312Z,59.63
2022-07-25T14:16:24.078Z,26.02
2022-07-25T14:18:50.887Z,27.17
2022-07-25T14:21:17.560Z,23.30
2022-07-25T14:23:44.415Z,60.20
2022-07-25T14:26:13.258Z,47.28
2022-07-25T14:31:11.303Z,22.30
2022-07-25T14:33:40.009Z,56.55
2022-07-25T14:36:08.569Z,20.75
2022-07-25T14:38:36.121Z,10.75
2022-07-25T14:41:06.592Z,56.23
2022-07-25T14:43:35.761Z,8.15
2022-07-25T14:46:02.451Z,47.67
2022-07-25T14:48:29.235Z,21.75
2022-07-25T14:50:56.043Z,14.32
2022-07-25T14:53:22.752Z,17.20
2022-07-25T14:55:49.452Z,32.53
2022-07-25T14:58:16.153Z,29.70
2022-07-25T15:00:43.636Z,13.82
2022-07-25T15:03:12.615Z,21.00
2022-07-25T15:05:41.178Z,7.20
2022-07-25T15:08:08.147Z,11.48
2022-07-25T15:10:34.753Z,14.15
2022-07-25T15:13:29.469Z,12.90
2022-07-25T15:15:48.208Z,18.40
2022-07-25T15:18:15.075Z,8.27
2022-07-25T15:20:41.810Z,10.80
2022-07-25T15:23:08.481Z,9.52
2022-07-25T15:28:25.066Z,16.55
2022-07-25T15:30:55.028Z,8.95
2022-07-25T15:33:22.125Z,14.13
2022-07-25T15:35:48.750Z,9.25
2022-07-25T15:38:17.779Z,12.60
2022-07-25T15:40:45.047Z,9.52
2022-07-25T15:43:14.443Z,12.18
2022-07-25T15:45:46.054Z,12.25
2022-07-25T15:48:14.661Z,8.40
2022-07-25T15:50:43.847Z,22.08
2022-07-25T15:53:11.422Z,230.60
2022-07-25T15:55:40.448Z,125.50
2022-07-25T15:58:09.495Z,103.13
2022-07-25T16:00:36.869Z,84.00
2022-07-25T16:03:04.095Z,45.38
2022-07-25T16:05:32.656Z,43.28
2022-07-25T16:08:03.494Z,55.15
2022-07-25T16:10:32.440Z,51.05
2022-07-25T16:15:27.087Z,221.50
2022-07-25T16:18:00.082Z,155.18
2022-07-25T16:20:31.477Z,109.53
2022-07-25T16:22:59.337Z,62.28
2022-07-25T16:25:29.865Z,73.55
2022-07-25T16:27:59.759Z,57.55
2022-07-25T16:30:27.475Z,61.40
2022-07-25T16:32:54.476Z,31.13
2022-07-25T16:35:21.341Z,46.22
2022-07-25T16:37:48.296Z,153.43
2022-07-25T16:40:15.107Z,93.32
2022-07-25T16:42:42.303Z,222.38
2022-07-25T16:45:10.196Z,92.00
2022-07-25T16:47:37.183Z,100.77
2022-07-25T16:50:04.096Z,69.15
2022-07-25T16:52:31.826Z,78.28
2022-07-25T16:54:59.387Z,35.55
2022-07-25T16:57:26.098Z,43.00
2022-07-25T16:59:56.174Z,52.35
2022-07-25T17:02:28.977Z,49.75
2022-07-25T17:04:59.087Z,21.38
2022-07-25T17:07:26.595Z,33.38
2022-07-25T17:09:56.238Z,24.65
2022-07-25T17:12:22.983Z,12.75
2022-07-25T17:14:49.978Z,108.63
2022-07-25T17:17:16.926Z,164.48
2022-07-25T17:19:43.997Z,118.85
2022-07-25T17:22:11.350Z,530.20
2022-07-25T17:24:39.131Z,66.47
2022-07-25T17:27:07.486Z,369.48
2022-07-25T17:29:34.701Z,196.13
2022-07-25T17:32:01.877Z,106.00
2022-07-25T17:34:28.816Z,24.52
2022-07-25T17:36:55.727Z,50.67
2022-07-25T17:39:22.351Z,66.97
2022-07-25T17:41:52.068Z,31.33
2022-07-25T17:44:25.049Z,41.00
2022-07-25T17:46:53.338Z,30.25
2022-07-25T17:49:21.622Z,10.65
2022-07-25T17:51:48.415Z,8.82
2022-07-25T17:54:15.182Z,26.13
2022-07-25T17:56:42.394Z,8.50
2022-07-25T17:59:09.174Z,24.42
2022-07-25T18:01:36.033Z,15.90
2022-07-25T18:04:03.402Z,18.63
2022-07-25T18:06:30.326Z,23.35
2022-07-25T18:09:01.954Z,17.77
2022-07-25T18:11:28.610Z,9.93
2022-07-25T18:13:55.251Z,21.67
2022-07-25T18:16:22.799Z,12.68
2022-07-25T18:18:51.239Z,8.30
2022-07-25T18:21:21.025Z,24.57
2022-07-25T18:23:48.050Z,12.45
2022-07-25T18:26:14.917Z,17.20
2022-07-25T18:28:41.782Z,7.15
2022-07-25T18:31:09.970Z,6.72
2022-07-25T18:33:37.061Z,4.97
2022-07-25T18:36:07.547Z,2.95
2022-07-25T18:38:36.226Z,5.65
2022-07-25T18:41:27.532Z,8.90
2022-07-25T18:43:51.609Z,2.35
2022-07-25T18:46:19.934Z,2.90
2022-07-25T18:48:50.185Z,3.75
2022-07-25T18:51:17.034Z,4.25
2022-07-25T18:53:47.701Z,7.28
2022-07-25T18:56:15.902Z,5.78
2022-07-25T18:58:45.608Z,57.53
2022-07-25T19:01:12.535Z,8.90
2022-07-25T19:03:40.483Z,8.90
2022-07-25T19:06:08.764Z,4.95
2022-07-25T19:08:38.810Z,5.87
2022-07-25T19:11:08.646Z,4.43
2022-07-25T19:13:51.103Z,3.00
2022-07-25T19:16:18.566Z,7.18
2022-07-25T19:18:45.582Z,3.05
2022-07-25T19:21:12.383Z,28.92
2022-07-25T19:23:39.175Z,6.55
2022-07-25T19:26:06.250Z,6.45
2022-07-25T19:28:33.039Z,4.20
2022-07-25T19:31:02.564Z,7.38
2022-07-25T19:33:34.626Z,1.08
2022-07-25T19:36:06.834Z,2.65
2022-07-25T19:38:33.754Z,55.08
2022-07-25T19:41:00.878Z,9.13
2022-07-25T19:43:27.822Z,3.67
2022-07-25T19:45:54.694Z,3.83
2022-07-25T19:48:24.475Z,4.47
2022-07-25T19:50:52.882Z,7.88
2022-07-25T19:53:22.052Z,3.23
2022-07-25T19:55:50.953Z,3.03
2022-07-25T19:58:17.704Z,5.13
2022-07-25T20:00:45.836Z,1.80
2022-07-25T20:03:12.712Z,2.55
2022-07-25T20:05:41.157Z,1.70
2022-07-25T20:08:07.837Z,2.28
2022-07-25T20:10:34.523Z,7.70
2022-07-25T20:13:01.694Z,0.68
2022-07-25T20:15:28.993Z,5.97
2022-07-25T20:17:56.682Z,10.30
2022-07-25T20:20:23.756Z,3.60
2022-07-25T20:22:51.085Z,3.08
2022-07-25T20:25:18.069Z,2.70
2022-07-25T20:27:45.046Z,1.30
2022-07-25T20:30:12.338Z,1.55
2022-07-25T20:32:39.150Z,5.47
2022-07-25T20:35:06.445Z,1.45
2022-07-25T20:37:33.282Z,3.50
2022-07-25T20:40:02.258Z,6.35
2022-07-25T20:42:29.073Z,1.67
2022-07-25T20:44:56.703Z,1.25
2022-07-25T20:47:23.612Z,4.28
2022-07-25T20:49:50.566Z,1.33
2022-07-25T20:52:17.332Z,2.58
2022-07-25T20:54:44.122Z,4.60
2022-07-25T20:57:11.734Z,1.35
2022-07-25T20:59:38.499Z,6.45
2022-07-25T21:02:05.629Z,5.07
2022-07-25T21:04:32.566Z,1.20
2022-07-25T21:06:59.493Z,4.07
2022-07-25T21:09:29.623Z,3.40
2022-07-25T21:11:59.768Z,6.53
2022-07-25T21:14:27.803Z,1.45
2022-07-25T21:16:54.774Z,2.92
2022-07-25T21:19:21.529Z,3.97
2022-07-25T21:21:48.576Z,1.17
2022-07-25T21:24:15.380Z,1.00
2022-07-25T21:26:42.634Z,28.10
2022-07-25T21:29:09.888Z,5.32
2022-07-25T21:31:37.683Z,2.90
2022-07-25T21:34:04.515Z,1.40
2022-07-25T21:36:31.278Z,2.42
2022-07-25T21:38:58.120Z,6.90
2022-07-25T21:41:24.915Z,1.42
2022-07-25T21:43:51.597Z,4.60
2022-07-25T21:46:18.432Z,6.28
2022-07-25T21:49:03.835Z,7.32
2022-07-25T21:51:40.579Z,6.57
2022-07-25T21:54:08.228Z,2.05
2022-07-25T21:56:34.893Z,4.05
2022-07-25T21:59:01.813Z,2.53
2022-07-25T22:01:29.481Z,3.67
2022-07-25T22:03:58.320Z,7.45
2022-07-25T22:06:25.138Z,3.78
2022-07-25T22:08:51.757Z,8.93
2022-07-25T22:11:38.632Z,7.43
2022-07-25T22:14:05.529Z,4.80
2022-07-25T22:16:32.344Z,0.63
2022-07-25T22:18:59.740Z,2.78
2022-07-25T22:21:26.674Z,4.28
2022-07-25T22:23:53.393Z,1.33
2022-07-25T22:26:20.287Z,2.65
2022-07-25T22:28:48.346Z,4.72
2022-07-25T22:31:15.222Z,4.53
2022-07-25T22:33:42.008Z,7.07
2022-07-25T22:36:08.896Z,6.63
2022-07-25T22:38:36.338Z,4.40
2022-07-25T22:41:03.042Z,15.45
2022-07-25T22:43:56.801Z,3.97
2022-07-25T22:46:16.973Z,85.15
2022-07-25T22:48:43.717Z,26.15
2022-07-25T22:51:10.383Z,5.90
2022-07-25T22:53:37.008Z,4.97
2022-07-25T22:56:03.985Z,6.82
2022-07-25T22:58:30.669Z,3.75
2022-07-25T23:00:57.405Z,3.75
2022-07-25T23:03:24.133Z,8.48
2022-07-25T23:05:57.309Z,3.65
2022-07-25T23:08:24.213Z,13.45
2022-07-25T23:10:50.888Z,20.50
2022-07-25T23:13:17.675Z,2.15
2022-07-25T23:15:49.581Z,3.25
2022-07-25T23:18:18.958Z,187.60
2022-07-25T23:20:45.869Z,22.58
2022-07-25T23:23:12.847Z,6.38
2022-07-25T23:25:39.604Z,9.77
2022-07-25T23:28:06.599Z,2.25
2022-07-25T23:30:38.179Z,2.90
2022-07-25T23:33:07.102Z,7.15
2022-07-25T23:35:33.908Z,10.43
2022-07-25T23:38:00.571Z,72.90
2022-07-25T23:40:27.729Z,106.80
2022-07-25T23:42:54.519Z,80.25
2022-07-25T23:45:22.025Z,9.23
2022-07-25T23:47:51.682Z,4.40
2022-07-25T23:50:20.004Z,5.45
2022-07-25T23:52:46.573Z,2.92
2022-07-25T23:55:13.429Z,6.10
2022-07-25T23:57:40.065Z,3.08
